sensor_id;sensor_type;location;lat;lon;timestamp;pressure;altitude;pressure_sealevel;temperature;humidity
39954;BME280;25631;51.516;-0.470;2023-03-04T00:02:00;102832.29;;;4.82;32.90
39954;BME280;25631;51.516;-0.470;2023-03-04T00:04:36;102833.71;;;4.89;32.88
39954;BME280;25631;51.516;-0.470;2023-03-04T00:07:13;102835.80;;;4.76;32.94
39954;BME280;25631;51.516;-0.470;2023-03-04T00:09:49;102833.15;;;4.92;32.96
39954;BME280;25631;51.516;-0.470;2023-03-04T00:12:26;102826.83;;;4.92;32.92
39954;BME280;25631;51.516;-0.470;2023-03-04T00:15:03;102823.30;;;4.98;32.88
39954;BME280;25631;51.516;-0.470;2023-03-04T00:17:39;102824.63;;;5.04;33.07
39954;BME280;25631;51.516;-0.470;2023-03-04T00:20:16;102824.72;;;4.86;33.06
39954;BME280;25631;51.516;-0.470;2023-03-04T00:22:53;102826.91;;;5.02;33.08
39954;BME280;25631;51.516;-0.470;2023-03-04T00:25:30;102825.15;;;4.78;33.27
39954;BME280;25631;51.516;-0.470;2023-03-04T00:28:06;102823.14;;;4.67;33.32
39954;BME280;25631;51.516;-0.470;2023-03-04T00:30:43;102821.71;;;4.72;33.37
39954;BME280;25631;51.516;-0.470;2023-03-04T00:33:20;102818.75;;;4.62;33.38
39954;BME280;25631;51.516;-0.470;2023-03-04T00:35:56;102818.11;;;4.46;33.50
39954;BME280;25631;51.516;-0.470;2023-03-04T00:38:33;102819.37;;;4.71;33.41
39954;BME280;25631;51.516;-0.470;2023-03-04T00:41:09;102818.61;;;4.76;33.46
39954;BME280;25631;51.516;-0.470;2023-03-04T00:43:46;102821.76;;;4.85;33.44
39954;BME280;25631;51.516;-0.470;2023-03-04T00:46:22;102820.37;;;4.81;33.54
39954;BME280;25631;51.516;-0.470;2023-03-04T00:48:59;102817.26;;;4.78;33.57
39954;BME280;25631;51.516;-0.470;2023-03-04T00:51:36;102817.35;;;4.64;33.66
39954;BME280;25631;51.516;-0.470;2023-03-04T00:54:12;102818.12;;;4.61;33.60
39954;BME280;25631;51.516;-0.470;2023-03-04T00:56:49;102816.24;;;4.52;33.62
39954;BME280;25631;51.516;-0.470;2023-03-04T00:59:25;102820.36;;;4.49;33.65
39954;BME280;25631;51.516;-0.470;2023-03-04T01:02:02;102813.94;;;4.32;33.71
39954;BME280;25631;51.516;-0.470;2023-03-04T01:04:38;102818.08;;;4.20;33.73
39954;BME280;25631;51.516;-0.470;2023-03-04T01:07:15;102819.68;;;4.38;33.83
39954;BME280;25631;51.516;-0.470;2023-03-04T01:09:52;102820.44;;;4.33;34.07
39954;BME280;25631;51.516;-0.470;2023-03-04T01:12:29;102823.78;;;4.25;34.07
39954;BME280;25631;51.516;-0.470;2023-03-04T01:15:08;102827.54;;;4.29;34.07
39954;BME280;25631;51.516;-0.470;2023-03-04T01:17:44;102826.24;;;4.23;34.12
39954;BME280;25631;51.516;-0.470;2023-03-04T01:20:21;102831.06;;;4.31;34.14
39954;BME280;25631;51.516;-0.470;2023-03-04T01:22:58;102831.52;;;4.37;34.08
39954;BME280;25631;51.516;-0.470;2023-03-04T01:25:34;102829.93;;;4.17;34.10
39954;BME280;25631;51.516;-0.470;2023-03-04T01:28:10;102834.13;;;4.28;34.05
39954;BME280;25631;51.516;-0.470;2023-03-04T01:30:47;102833.63;;;4.46;34.21
39954;BME280;25631;51.516;-0.470;2023-03-04T01:33:24;102828.31;;;4.31;34.12
39954;BME280;25631;51.516;-0.470;2023-03-04T01:36:00;102823.56;;;4.28;34.09
39954;BME280;25631;51.516;-0.470;2023-03-04T01:38:37;102823.37;;;4.14;34.05
39954;BME280;25631;51.516;-0.470;2023-03-04T01:41:16;102820.15;;;3.72;34.00
39954;BME280;25631;51.516;-0.470;2023-03-04T01:43:55;102819.58;;;4.22;33.92
39954;BME280;25631;51.516;-0.470;2023-03-04T01:46:33;102822.33;;;4.24;33.89
39954;BME280;25631;51.516;-0.470;2023-03-04T01:49:15;102816.58;;;4.19;33.84
39954;BME280;25631;51.516;-0.470;2023-03-04T01:51:53;102813.18;;;4.47;33.84
39954;BME280;25631;51.516;-0.470;2023-03-04T01:54:30;102816.34;;;4.43;33.90
39954;BME280;25631;51.516;-0.470;2023-03-04T01:57:15;102802.40;;;4.26;33.86
39954;BME280;25631;51.516;-0.470;2023-03-04T02:00:28;102804.91;;;4.37;33.77
39954;BME280;25631;51.516;-0.470;2023-03-04T02:03:08;102802.20;;;4.43;33.75
39954;BME280;25631;51.516;-0.470;2023-03-04T02:05:48;102796.19;;;4.32;33.84
39954;BME280;25631;51.516;-0.470;2023-03-04T02:08:25;102795.17;;;4.39;33.78
39954;BME280;25631;51.516;-0.470;2023-03-04T02:11:02;102789.21;;;4.49;33.87
39954;BME280;25631;51.516;-0.470;2023-03-04T02:13:39;102792.83;;;4.41;33.89
39954;BME280;25631;51.516;-0.470;2023-03-04T02:16:15;102790.58;;;4.59;33.86
39954;BME280;25631;51.516;-0.470;2023-03-04T02:18:52;102788.19;;;4.55;33.96
39954;BME280;25631;51.516;-0.470;2023-03-04T02:21:31;102785.76;;;4.46;33.92
39954;BME280;25631;51.516;-0.470;2023-03-04T02:24:12;102785.69;;;4.44;33.88
39954;BME280;25631;51.516;-0.470;2023-03-04T02:26:50;102784.80;;;4.52;33.88
39954;BME280;25631;51.516;-0.470;2023-03-04T02:29:27;102785.19;;;4.44;33.94
39954;BME280;25631;51.516;-0.470;2023-03-04T02:32:04;102784.37;;;4.28;34.06
39954;BME280;25631;51.516;-0.470;2023-03-04T02:34:45;102782.93;;;4.62;34.09
39954;BME280;25631;51.516;-0.470;2023-03-04T02:37:22;102782.88;;;4.52;34.16
39954;BME280;25631;51.516;-0.470;2023-03-04T02:39:58;102777.02;;;4.55;34.30
39954;BME280;25631;51.516;-0.470;2023-03-04T02:42:35;102772.41;;;4.63;34.41
39954;BME280;25631;51.516;-0.470;2023-03-04T02:45:33;102768.75;;;4.27;34.48
39954;BME280;25631;51.516;-0.470;2023-03-04T02:48:11;102759.70;;;4.24;34.44
39954;BME280;25631;51.516;-0.470;2023-03-04T02:50:50;102758.29;;;4.19;34.58
39954;BME280;25631;51.516;-0.470;2023-03-04T02:53:27;102757.45;;;4.32;34.54
39954;BME280;25631;51.516;-0.470;2023-03-04T02:56:05;102753.74;;;4.24;34.63
39954;BME280;25631;51.516;-0.470;2023-03-04T02:58:41;102754.93;;;4.07;34.70
39954;BME280;25631;51.516;-0.470;2023-03-04T03:01:18;102756.88;;;4.34;34.66
39954;BME280;25631;51.516;-0.470;2023-03-04T03:03:54;102751.98;;;4.58;34.63
39954;BME280;25631;51.516;-0.470;2023-03-04T03:06:31;102751.61;;;4.54;34.58
39954;BME280;25631;51.516;-0.470;2023-03-04T03:09:08;102748.25;;;4.35;34.55
39954;BME280;25631;51.516;-0.470;2023-03-04T03:11:44;102742.74;;;4.33;34.59
39954;BME280;25631;51.516;-0.470;2023-03-04T03:14:21;102744.26;;;4.67;34.57
39954;BME280;25631;51.516;-0.470;2023-03-04T03:16:57;102743.86;;;4.61;34.51
39954;BME280;25631;51.516;-0.470;2023-03-04T03:19:34;102744.99;;;4.54;34.43
39954;BME280;25631;51.516;-0.470;2023-03-04T03:22:11;102744.16;;;4.74;34.36
39954;BME280;25631;51.516;-0.470;2023-03-04T03:24:47;102745.08;;;4.77;34.37
39954;BME280;25631;51.516;-0.470;2023-03-04T03:27:24;102743.19;;;4.46;34.37
39954;BME280;25631;51.516;-0.470;2023-03-04T03:30:00;102746.59;;;4.58;34.40
39954;BME280;25631;51.516;-0.470;2023-03-04T03:32:37;102747.54;;;4.65;34.35
39954;BME280;25631;51.516;-0.470;2023-03-04T03:35:13;102745.66;;;4.52;34.30
39954;BME280;25631;51.516;-0.470;2023-03-04T03:37:50;102744.94;;;4.45;34.29
39954;BME280;25631;51.516;-0.470;2023-03-04T03:40:26;102745.66;;;4.62;34.27
39954;BME280;25631;51.516;-0.470;2023-03-04T03:43:03;102746.26;;;4.62;34.23
39954;BME280;25631;51.516;-0.470;2023-03-04T03:45:40;102747.81;;;4.95;34.22
39954;BME280;25631;51.516;-0.470;2023-03-04T03:48:16;102751.57;;;4.60;34.24
39954;BME280;25631;51.516;-0.470;2023-03-04T03:50:53;102750.21;;;5.00;34.17
39954;BME280;25631;51.516;-0.470;2023-03-04T03:53:30;102748.64;;;4.65;34.15
39954;BME280;25631;51.516;-0.470;2023-03-04T03:56:06;102745.96;;;4.55;34.17
39954;BME280;25631;51.516;-0.470;2023-03-04T03:58:43;102741.77;;;4.74;34.14
39954;BME280;25631;51.516;-0.470;2023-03-04T04:01:20;102740.41;;;4.66;34.17
39954;BME280;25631;51.516;-0.470;2023-03-04T04:03:56;102742.00;;;4.68;34.16
39954;BME280;25631;51.516;-0.470;2023-03-04T04:06:33;102740.76;;;4.70;34.14
39954;BME280;25631;51.516;-0.470;2023-03-04T04:09:10;102740.46;;;4.99;34.14
39954;BME280;25631;51.516;-0.470;2023-03-04T04:11:46;102742.14;;;4.79;34.21
39954;BME280;25631;51.516;-0.470;2023-03-04T04:14:23;102742.30;;;4.74;34.23
39954;BME280;25631;51.516;-0.470;2023-03-04T04:17:00;102742.67;;;4.77;34.19
39954;BME280;25631;51.516;-0.470;2023-03-04T04:19:36;102740.09;;;5.03;34.14
39954;BME280;25631;51.516;-0.470;2023-03-04T04:22:15;102745.06;;;4.83;34.11
39954;BME280;25631;51.516;-0.470;2023-03-04T04:24:52;102742.86;;;4.96;34.08
39954;BME280;25631;51.516;-0.470;2023-03-04T04:27:28;102748.09;;;4.72;34.09
39954;BME280;25631;51.516;-0.470;2023-03-04T04:30:06;102746.16;;;5.01;34.08
39954;BME280;25631;51.516;-0.470;2023-03-04T04:32:42;102747.79;;;4.66;34.11
39954;BME280;25631;51.516;-0.470;2023-03-04T04:35:19;102743.95;;;4.77;34.13
39954;BME280;25631;51.516;-0.470;2023-03-04T04:37:56;102744.56;;;4.84;34.18
39954;BME280;25631;51.516;-0.470;2023-03-04T04:40:32;102750.26;;;4.78;34.15
39954;BME280;25631;51.516;-0.470;2023-03-04T04:43:09;102749.21;;;4.77;34.11
39954;BME280;25631;51.516;-0.470;2023-03-04T04:45:46;102753.93;;;4.76;34.16
39954;BME280;25631;51.516;-0.470;2023-03-04T04:48:22;102751.45;;;4.77;34.17
39954;BME280;25631;51.516;-0.470;2023-03-04T04:50:59;102755.56;;;4.87;34.17
39954;BME280;25631;51.516;-0.470;2023-03-04T04:53:36;102752.97;;;4.77;34.11
39954;BME280;25631;51.516;-0.470;2023-03-04T04:56:15;102756.89;;;4.67;34.14
39954;BME280;25631;51.516;-0.470;2023-03-04T04:58:53;102757.32;;;4.45;34.09
39954;BME280;25631;51.516;-0.470;2023-03-04T05:01:30;102760.84;;;4.59;34.12
39954;BME280;25631;51.516;-0.470;2023-03-04T05:04:06;102760.87;;;4.66;34.12
39954;BME280;25631;51.516;-0.470;2023-03-04T05:06:44;102763.31;;;4.37;34.16
39954;BME280;25631;51.516;-0.470;2023-03-04T05:09:21;102761.53;;;4.57;34.17
39954;BME280;25631;51.516;-0.470;2023-03-04T05:11:57;102766.29;;;4.55;34.20
39954;BME280;25631;51.516;-0.470;2023-03-04T05:14:34;102763.66;;;4.46;34.20
39954;BME280;25631;51.516;-0.470;2023-03-04T05:17:11;102767.87;;;4.47;34.17
39954;BME280;25631;51.516;-0.470;2023-03-04T05:19:47;102773.14;;;4.47;34.17
39954;BME280;25631;51.516;-0.470;2023-03-04T05:22:24;102776.97;;;4.34;34.20
39954;BME280;25631;51.516;-0.470;2023-03-04T05:25:00;102778.10;;;4.46;34.31
39954;BME280;25631;51.516;-0.470;2023-03-04T05:27:37;102777.44;;;4.64;34.20
39954;BME280;25631;51.516;-0.470;2023-03-04T05:30:13;102778.20;;;4.18;34.14
39954;BME280;25631;51.516;-0.470;2023-03-04T05:32:50;102783.40;;;4.28;34.04
39954;BME280;25631;51.516;-0.470;2023-03-04T05:35:26;102781.74;;;4.34;34.06
39954;BME280;25631;51.516;-0.470;2023-03-04T05:38:04;102781.22;;;4.49;34.10
39954;BME280;25631;51.516;-0.470;2023-03-04T05:40:41;102783.57;;;4.10;34.23
39954;BME280;25631;51.516;-0.470;2023-03-04T05:43:17;102784.82;;;4.39;34.19
39954;BME280;25631;51.516;-0.470;2023-03-04T05:45:54;102783.34;;;4.21;34.24
39954;BME280;25631;51.516;-0.470;2023-03-04T05:48:31;102782.77;;;4.30;34.24
39954;BME280;25631;51.516;-0.470;2023-03-04T05:51:08;102785.71;;;4.15;34.22
39954;BME280;25631;51.516;-0.470;2023-03-04T05:53:45;102785.53;;;4.03;34.24
39954;BME280;25631;51.516;-0.470;2023-03-04T05:56:22;102784.81;;;4.27;34.23
39954;BME280;25631;51.516;-0.470;2023-03-04T05:58:58;102787.54;;;4.45;34.28
39954;BME280;25631;51.516;-0.470;2023-03-04T06:01:35;102785.92;;;4.21;34.29
39954;BME280;25631;51.516;-0.470;2023-03-04T06:04:16;102785.04;;;4.32;34.35
39954;BME280;25631;51.516;-0.470;2023-03-04T06:06:53;102782.72;;;4.27;34.35
39954;BME280;25631;51.516;-0.470;2023-03-04T06:09:30;102782.41;;;4.14;34.43
39954;BME280;25631;51.516;-0.470;2023-03-04T06:12:07;102786.15;;;3.98;34.45
39954;BME280;25631;51.516;-0.470;2023-03-04T06:14:44;102780.36;;;4.09;34.28
39954;BME280;25631;51.516;-0.470;2023-03-04T06:17:21;102780.32;;;4.40;34.33
39954;BME280;25631;51.516;-0.470;2023-03-04T06:19:58;102781.22;;;4.28;34.24
39954;BME280;25631;51.516;-0.470;2023-03-04T06:22:35;102783.58;;;3.92;34.23
39954;BME280;25631;51.516;-0.470;2023-03-04T06:25:12;102786.24;;;3.88;34.20
39954;BME280;25631;51.516;-0.470;2023-03-04T06:27:49;102784.80;;;4.22;34.28
39954;BME280;25631;51.516;-0.470;2023-03-04T06:30:25;102789.30;;;4.09;34.73
39954;BME280;25631;51.516;-0.470;2023-03-04T06:33:02;102793.86;;;3.98;35.06
39954;BME280;25631;51.516;-0.470;2023-03-04T06:35:39;102796.31;;;3.83;35.16
39954;BME280;25631;51.516;-0.470;2023-03-04T06:38:15;102796.67;;;4.27;35.20
39954;BME280;25631;51.516;-0.470;2023-03-04T06:40:52;102794.72;;;4.11;35.26
39954;BME280;25631;51.516;-0.470;2023-03-04T06:43:28;102795.11;;;3.90;35.35
39954;BME280;25631;51.516;-0.470;2023-03-04T06:46:05;102794.61;;;3.70;35.46
39954;BME280;25631;51.516;-0.470;2023-03-04T06:48:41;102797.55;;;3.91;35.56
39954;BME280;25631;51.516;-0.470;2023-03-04T06:51:18;102801.37;;;3.79;35.48
39954;BME280;25631;51.516;-0.470;2023-03-04T06:53:55;102802.09;;;3.94;35.47
39954;BME280;25631;51.516;-0.470;2023-03-04T06:56:32;102805.99;;;4.14;35.49
39954;BME280;25631;51.516;-0.470;2023-03-04T06:59:08;102809.62;;;3.90;35.48
39954;BME280;25631;51.516;-0.470;2023-03-04T07:01:45;102809.38;;;3.86;35.50
39954;BME280;25631;51.516;-0.470;2023-03-04T07:04:21;102807.78;;;4.12;35.45
39954;BME280;25631;51.516;-0.470;2023-03-04T07:06:58;102814.14;;;4.07;35.44
39954;BME280;25631;51.516;-0.470;2023-03-04T07:09:34;102817.31;;;4.13;35.37
39954;BME280;25631;51.516;-0.470;2023-03-04T07:12:11;102819.72;;;4.07;35.46
39954;BME280;25631;51.516;-0.470;2023-03-04T07:14:48;102824.59;;;4.15;35.47
39954;BME280;25631;51.516;-0.470;2023-03-04T07:17:24;102823.92;;;4.16;35.47
39954;BME280;25631;51.516;-0.470;2023-03-04T07:20:01;102828.72;;;4.27;35.48
39954;BME280;25631;51.516;-0.470;2023-03-04T07:22:37;102825.17;;;3.95;35.51
39954;BME280;25631;51.516;-0.470;2023-03-04T07:25:14;102827.82;;;3.95;35.63
39954;BME280;25631;51.516;-0.470;2023-03-04T07:27:51;102825.15;;;4.09;35.68
39954;BME280;25631;51.516;-0.470;2023-03-04T07:30:27;102827.15;;;4.00;35.71
39954;BME280;25631;51.516;-0.470;2023-03-04T07:33:04;102827.36;;;4.14;35.71
39954;BME280;25631;51.516;-0.470;2023-03-04T07:35:40;102832.58;;;4.44;35.70
39954;BME280;25631;51.516;-0.470;2023-03-04T07:38:17;102831.67;;;4.24;35.75
39954;BME280;25631;51.516;-0.470;2023-03-04T07:40:55;102833.51;;;4.23;35.73
39954;BME280;25631;51.516;-0.470;2023-03-04T07:43:31;102838.06;;;4.34;35.68
39954;BME280;25631;51.516;-0.470;2023-03-04T07:46:08;102838.58;;;4.09;35.74
39954;BME280;25631;51.516;-0.470;2023-03-04T07:48:45;102835.20;;;4.11;35.78
39954;BME280;25631;51.516;-0.470;2023-03-04T07:51:24;102837.75;;;3.96;35.73
39954;BME280;25631;51.516;-0.470;2023-03-04T07:54:01;102842.32;;;4.08;35.81
39954;BME280;25631;51.516;-0.470;2023-03-04T07:56:38;102842.55;;;3.97;35.75
39954;BME280;25631;51.516;-0.470;2023-03-04T07:59:15;102843.64;;;4.31;35.80
39954;BME280;25631;51.516;-0.470;2023-03-04T08:01:51;102847.30;;;4.11;35.91
39954;BME280;25631;51.516;-0.470;2023-03-04T08:04:28;102851.56;;;3.90;36.02
39954;BME280;25631;51.516;-0.470;2023-03-04T08:07:04;102851.47;;;3.86;35.96
39954;BME280;25631;51.516;-0.470;2023-03-04T08:09:41;102854.31;;;4.15;36.03
39954;BME280;25631;51.516;-0.470;2023-03-04T08:12:18;102854.56;;;3.89;36.07
39954;BME280;25631;51.516;-0.470;2023-03-04T08:14:54;102850.99;;;4.38;36.00
39954;BME280;25631;51.516;-0.470;2023-03-04T08:17:31;102849.90;;;3.99;35.96
39954;BME280;25631;51.516;-0.470;2023-03-04T08:20:09;102848.80;;;4.10;36.01
39954;BME280;25631;51.516;-0.470;2023-03-04T08:22:45;102848.80;;;4.23;36.02
39954;BME280;25631;51.516;-0.470;2023-03-04T08:25:22;102846.39;;;4.13;35.92
39954;BME280;25631;51.516;-0.470;2023-03-04T08:27:59;102850.98;;;4.34;35.81
39954;BME280;25631;51.516;-0.470;2023-03-04T08:30:35;102851.53;;;4.26;35.74
39954;BME280;25631;51.516;-0.470;2023-03-04T08:33:12;102854.04;;;4.42;35.62
39954;BME280;25631;51.516;-0.470;2023-03-04T08:35:48;102845.88;;;4.68;35.57
39954;BME280;25631;51.516;-0.470;2023-03-04T08:38:25;102850.39;;;4.54;35.53
39954;BME280;25631;51.516;-0.470;2023-03-04T08:41:02;102851.95;;;4.38;35.54
39954;BME280;25631;51.516;-0.470;2023-03-04T08:43:39;102852.38;;;4.45;35.39
39954;BME280;25631;51.516;-0.470;2023-03-04T08:46:16;102851.61;;;4.53;35.30
39954;BME280;25631;51.516;-0.470;2023-03-04T08:48:53;102853.15;;;4.68;35.15
39954;BME280;25631;51.516;-0.470;2023-03-04T08:51:30;102846.52;;;4.73;35.14
39954;BME280;25631;51.516;-0.470;2023-03-04T08:54:06;102845.70;;;4.58;35.05
39954;BME280;25631;51.516;-0.470;2023-03-04T08:56:43;102839.53;;;4.67;35.12
39954;BME280;25631;51.516;-0.470;2023-03-04T08:59:19;102839.29;;;4.85;35.09
39954;BME280;25631;51.516;-0.470;2023-03-04T09:01:56;102834.66;;;4.59;35.08
39954;BME280;25631;51.516;-0.470;2023-03-04T09:04:33;102833.22;;;4.74;35.02
39954;BME280;25631;51.516;-0.470;2023-03-04T09:07:09;102832.81;;;4.83;34.92
39954;BME280;25631;51.516;-0.470;2023-03-04T09:09:46;102831.36;;;4.96;34.90
39954;BME280;25631;51.516;-0.470;2023-03-04T09:12:22;102827.14;;;4.84;34.81
39954;BME280;25631;51.516;-0.470;2023-03-04T09:14:59;102828.13;;;4.85;34.73
39954;BME280;25631;51.516;-0.470;2023-03-04T09:17:35;102830.04;;;4.64;34.76
39954;BME280;25631;51.516;-0.470;2023-03-04T09:20:12;102834.67;;;4.83;34.84
39954;BME280;25631;51.516;-0.470;2023-03-04T09:22:49;102838.23;;;4.61;34.87
39954;BME280;25631;51.516;-0.470;2023-03-04T09:25:26;102840.23;;;4.75;34.84
39954;BME280;25631;51.516;-0.470;2023-03-04T09:28:04;102841.59;;;4.83;34.82
39954;BME280;25631;51.516;-0.470;2023-03-04T09:30:41;102842.35;;;4.98;34.69
39954;BME280;25631;51.516;-0.470;2023-03-04T09:33:18;102842.10;;;4.96;34.60
39954;BME280;25631;51.516;-0.470;2023-03-04T09:35:54;102844.11;;;5.19;34.67
39954;BME280;25631;51.516;-0.470;2023-03-04T09:38:31;102843.98;;;5.17;34.60
39954;BME280;25631;51.516;-0.470;2023-03-04T09:41:09;102847.35;;;5.05;34.39
39954;BME280;25631;51.516;-0.470;2023-03-04T09:43:49;102843.84;;;5.33;34.27
39954;BME280;25631;51.516;-0.470;2023-03-04T09:46:33;102843.62;;;5.30;34.10
39954;BME280;25631;51.516;-0.470;2023-03-04T09:49:17;102841.96;;;5.41;33.94
39954;BME280;25631;51.516;-0.470;2023-03-04T09:52:00;102841.64;;;5.01;33.88
39954;BME280;25631;51.516;-0.470;2023-03-04T09:54:54;102843.86;;;5.26;33.93
39954;BME280;25631;51.516;-0.470;2023-03-04T09:57:44;102841.72;;;5.02;34.07
39954;BME280;25631;51.516;-0.470;2023-03-04T10:00:34;102844.69;;;5.28;34.17
39954;BME280;25631;51.516;-0.470;2023-03-04T10:03:17;102839.83;;;5.11;33.89
39954;BME280;25631;51.516;-0.470;2023-03-04T10:05:57;102841.17;;;5.42;33.73
39954;BME280;25631;51.516;-0.470;2023-03-04T10:08:40;102841.22;;;5.36;33.62
39954;BME280;25631;51.516;-0.470;2023-03-04T10:11:24;102846.40;;;5.32;33.53
39954;BME280;25631;51.516;-0.470;2023-03-04T10:14:13;102840.97;;;5.57;33.34
39954;BME280;25631;51.516;-0.470;2023-03-04T10:16:54;102840.36;;;5.54;33.38
39954;BME280;25631;51.516;-0.470;2023-03-04T10:19:42;102835.38;;;5.55;33.25
39954;BME280;25631;51.516;-0.470;2023-03-04T10:22:31;102834.58;;;5.50;33.30
39954;BME280;25631;51.516;-0.470;2023-03-04T10:25:16;102836.35;;;5.14;33.40
39954;BME280;25631;51.516;-0.470;2023-03-04T10:27:55;102836.29;;;4.98;33.67
39954;BME280;25631;51.516;-0.470;2023-03-04T10:30:40;102837.01;;;5.49;33.75
39954;BME280;25631;51.516;-0.470;2023-03-04T10:33:25;102833.26;;;5.27;33.86
39954;BME280;25631;51.516;-0.470;2023-03-04T10:36:04;102835.50;;;5.48;33.80
39954;BME280;25631;51.516;-0.470;2023-03-04T10:38:41;102832.65;;;4.87;33.81
39954;BME280;25631;51.516;-0.470;2023-03-04T10:41:20;102831.53;;;5.19;33.83
39954;BME280;25631;51.516;-0.470;2023-03-04T10:44:01;102822.29;;;5.46;33.71
39954;BME280;25631;51.516;-0.470;2023-03-04T10:46:40;102826.07;;;5.45;33.76
39954;BME280;25631;51.516;-0.470;2023-03-04T10:49:18;102828.11;;;5.05;33.70
39954;BME280;25631;51.516;-0.470;2023-03-04T10:52:01;102824.00;;;5.14;33.62
39954;BME280;25631;51.516;-0.470;2023-03-04T10:54:42;102818.96;;;5.67;33.45
39954;BME280;25631;51.516;-0.470;2023-03-04T10:57:25;102815.72;;;5.55;33.45
39954;BME280;25631;51.516;-0.470;2023-03-04T11:00:27;102816.79;;;5.26;33.50
39954;BME280;25631;51.516;-0.470;2023-03-04T11:03:24;102814.82;;;5.44;33.53
39954;BME280;25631;51.516;-0.470;2023-03-04T11:06:10;102814.48;;;5.17;33.61
39954;BME280;25631;51.516;-0.470;2023-03-04T11:08:57;102811.46;;;5.49;33.58
39954;BME280;25631;51.516;-0.470;2023-03-04T11:11:40;102810.43;;;5.61;33.59
39954;BME280;25631;51.516;-0.470;2023-03-04T11:14:22;102809.02;;;5.55;33.27
39954;BME280;25631;51.516;-0.470;2023-03-04T11:17:01;102802.99;;;5.74;33.17
39954;BME280;25631;51.516;-0.470;2023-03-04T11:19:41;102803.35;;;6.03;33.04
39954;BME280;25631;51.516;-0.470;2023-03-04T11:22:22;102803.07;;;5.88;32.68
39954;BME280;25631;51.516;-0.470;2023-03-04T11:25:02;102803.40;;;5.97;32.29
39954;BME280;25631;51.516;-0.470;2023-03-04T11:27:45;102803.46;;;6.12;32.30
39954;BME280;25631;51.516;-0.470;2023-03-04T11:30:31;102794.46;;;6.18;31.90
39954;BME280;25631;51.516;-0.470;2023-03-04T11:33:16;102797.70;;;6.12;31.58
39954;BME280;25631;51.516;-0.470;2023-03-04T11:36:02;102793.10;;;6.03;31.60
39954;BME280;25631;51.516;-0.470;2023-03-04T11:38:45;102797.02;;;5.95;31.58
39954;BME280;25631;51.516;-0.470;2023-03-04T11:41:25;102792.86;;;5.97;31.66
39954;BME280;25631;51.516;-0.470;2023-03-04T11:44:05;102793.29;;;5.85;31.65
39954;BME280;25631;51.516;-0.470;2023-03-04T11:47:56;102791.29;;;5.86;31.65
39954;BME280;25631;51.516;-0.470;2023-03-04T11:50:44;102789.51;;;5.85;31.45
39954;BME280;25631;51.516;-0.470;2023-03-04T11:53:43;102782.49;;;5.72;31.52
39954;BME280;25631;51.516;-0.470;2023-03-04T11:56:33;102780.29;;;5.57;31.30
39954;BME280;25631;51.516;-0.470;2023-03-04T11:59:21;102772.75;;;5.64;31.28
39954;BME280;25631;51.516;-0.470;2023-03-04T12:02:12;102771.09;;;5.80;31.36
39954;BME280;25631;51.516;-0.470;2023-03-04T12:05:35;102767.66;;;5.93;31.21
39954;BME280;25631;51.516;-0.470;2023-03-04T12:08:26;102764.18;;;6.09;31.22
39954;BME280;25631;51.516;-0.470;2023-03-04T12:11:12;102760.43;;;6.03;31.24
39954;BME280;25631;51.516;-0.470;2023-03-04T12:14:01;102763.79;;;6.17;31.25
39954;BME280;25631;51.516;-0.470;2023-03-04T12:16:54;102759.06;;;6.30;31.21
39954;BME280;25631;51.516;-0.470;2023-03-04T12:19:44;102757.82;;;6.25;31.10
39954;BME280;25631;51.516;-0.470;2023-03-04T12:22:31;102754.09;;;5.75;30.80
39954;BME280;25631;51.516;-0.470;2023-03-04T12:25:21;102751.10;;;5.97;30.85
39954;BME280;25631;51.516;-0.470;2023-03-04T12:28:09;102746.91;;;6.03;30.97
39954;BME280;25631;51.516;-0.470;2023-03-04T12:31:00;102744.08;;;5.81;30.91
39954;BME280;25631;51.516;-0.470;2023-03-04T12:33:44;102736.35;;;6.02;30.77
39954;BME280;25631;51.516;-0.470;2023-03-04T12:36:29;102733.23;;;6.10;30.82
39954;BME280;25631;51.516;-0.470;2023-03-04T12:39:24;102727.86;;;6.08;30.68
39954;BME280;25631;51.516;-0.470;2023-03-04T12:42:12;102725.78;;;6.20;30.74
39954;BME280;25631;51.516;-0.470;2023-03-04T12:44:58;102720.02;;;6.22;30.74
39954;BME280;25631;51.516;-0.470;2023-03-04T12:47:46;102716.76;;;6.18;30.80
39954;BME280;25631;51.516;-0.470;2023-03-04T12:50:35;102714.75;;;6.24;30.80
39954;BME280;25631;51.516;-0.470;2023-03-04T12:53:23;102712.47;;;6.31;30.74
39954;BME280;25631;51.516;-0.470;2023-03-04T12:56:04;102710.85;;;6.17;30.72
39954;BME280;25631;51.516;-0.470;2023-03-04T12:58:41;102707.57;;;6.11;30.91
39954;BME280;25631;51.516;-0.470;2023-03-04T13:01:23;102703.53;;;6.05;30.97
39954;BME280;25631;51.516;-0.470;2023-03-04T13:04:04;102703.42;;;5.99;31.10
39954;BME280;25631;51.516;-0.470;2023-03-04T13:06:48;102703.47;;;6.18;31.04
39954;BME280;25631;51.516;-0.470;2023-03-04T13:09:33;102701.17;;;6.18;30.96
39954;BME280;25631;51.516;-0.470;2023-03-04T13:12:15;102698.80;;;6.16;30.80
39954;BME280;25631;51.516;-0.470;2023-03-04T13:16:02;102696.75;;;6.21;30.72
39954;BME280;25631;51.516;-0.470;2023-03-04T13:18:39;102690.63;;;6.01;30.45
39954;BME280;25631;51.516;-0.470;2023-03-04T13:21:21;102687.27;;;6.16;30.42
39954;BME280;25631;51.516;-0.470;2023-03-04T13:24:12;102684.80;;;5.97;30.55
39954;BME280;25631;51.516;-0.470;2023-03-04T13:27:50;102688.03;;;6.02;30.62
39954;BME280;25631;51.516;-0.470;2023-03-04T13:31:05;102683.37;;;6.10;30.69
39954;BME280;25631;51.516;-0.470;2023-03-04T13:34:44;102672.29;;;6.10;30.69
39954;BME280;25631;51.516;-0.470;2023-03-04T13:37:32;102675.03;;;6.12;30.86
39954;BME280;25631;51.516;-0.470;2023-03-04T13:40:35;102672.19;;;6.03;30.79
39954;BME280;25631;51.516;-0.470;2023-03-04T13:43:24;102667.77;;;6.00;30.98
39954;BME280;25631;51.516;-0.470;2023-03-04T13:46:28;102665.45;;;5.83;31.02
39954;BME280;25631;51.516;-0.470;2023-03-04T13:49:15;102662.28;;;5.98;31.02
39954;BME280;25631;51.516;-0.470;2023-03-04T13:51:53;102652.29;;;6.06;31.01
39954;BME280;25631;51.516;-0.470;2023-03-04T13:54:31;102650.88;;;6.03;31.02
39954;BME280;25631;51.516;-0.470;2023-03-04T13:57:17;102652.83;;;6.13;30.90
39954;BME280;25631;51.516;-0.470;2023-03-04T13:59:55;102652.14;;;6.24;30.88